sensor_id;sensor_type;location;lat;lon;timestamp;pressure;altitude;pressure_sealevel;temperature
28803;BMP280;15949;55.656;37.422;2023-05-10T00:03:15;100510.13;;;6.49
28803;BMP280;15949;55.656;37.422;2023-05-10T00:08:20;100515.06;;;6.50
28803;BMP280;15949;55.656;37.422;2023-05-10T00:13:26;100517.44;;;6.47
28803;BMP280;15949;55.656;37.422;2023-05-10T00:18:32;100509.16;;;6.45
28803;BMP280;15949;55.656;37.422;2023-05-10T00:23:37;100506.50;;;6.50
28803;BMP280;15949;55.656;37.422;2023-05-10T00:28:43;100509.06;;;6.55
28803;BMP280;15949;55.656;37.422;2023-05-10T00:33:49;100510.19;;;6.44
28803;BMP280;15949;55.656;37.422;2023-05-10T00:38:54;100517.47;;;6.42
28803;BMP280;15949;55.656;37.422;2023-05-10T00:44:00;100513.88;;;6.38
28803;BMP280;15949;55.656;37.422;2023-05-10T00:49:07;100520.75;;;6.24
28803;BMP280;15949;55.656;37.422;2023-05-10T00:54:14;100528.50;;;6.24
28803;BMP280;15949;55.656;37.422;2023-05-10T00:59:20;100519.84;;;6.38
28803;BMP280;15949;55.656;37.422;2023-05-10T01:04:27;100508.06;;;6.51
28803;BMP280;15949;55.656;37.422;2023-05-10T01:09:33;100505.41;;;6.56
28803;BMP280;15949;55.656;37.422;2023-05-10T01:14:39;100510.03;;;6.64
28803;BMP280;15949;55.656;37.422;2023-05-10T01:19:45;100509.19;;;6.68
28803;BMP280;15949;55.656;37.422;2023-05-10T01:25:32;100503.75;;;6.70
28803;BMP280;15949;55.656;37.422;2023-05-10T01:36:22;100502.78;;;6.61
28803;BMP280;15949;55.656;37.422;2023-05-10T01:41:52;100505.38;;;6.32
28803;BMP280;15949;55.656;37.422;2023-05-10T01:47:11;100511.19;;;6.19
28803;BMP280;15949;55.656;37.422;2023-05-10T01:52:20;100508.28;;;6.26
28803;BMP280;15949;55.656;37.422;2023-05-10T01:57:32;100501.28;;;6.26
28803;BMP280;15949;55.656;37.422;2023-05-10T02:02:40;100493.81;;;6.25
28803;BMP280;15949;55.656;37.422;2023-05-10T02:07:47;100495.09;;;6.27
28803;BMP280;15949;55.656;37.422;2023-05-10T02:12:55;100498.31;;;6.09
28803;BMP280;15949;55.656;37.422;2023-05-10T02:18:04;100503.31;;;6.00
28803;BMP280;15949;55.656;37.422;2023-05-10T02:23:11;100501.75;;;5.99
28803;BMP280;15949;55.656;37.422;2023-05-10T02:28:18;100501.53;;;5.96
28803;BMP280;15949;55.656;37.422;2023-05-10T02:33:25;100495.03;;;5.98
28803;BMP280;15949;55.656;37.422;2023-05-10T02:38:32;100486.34;;;6.18
28803;BMP280;15949;55.656;37.422;2023-05-10T02:43:39;100487.97;;;6.38
28803;BMP280;15949;55.656;37.422;2023-05-10T02:48:46;100502.97;;;6.41
28803;BMP280;15949;55.656;37.422;2023-05-10T02:53:53;100489.50;;;6.39
28803;BMP280;15949;55.656;37.422;2023-05-10T02:58:59;100490.03;;;6.41
28803;BMP280;15949;55.656;37.422;2023-05-10T03:04:05;100481.03;;;6.57
28803;BMP280;15949;55.656;37.422;2023-05-10T03:09:12;100492.25;;;6.76
28803;BMP280;15949;55.656;37.422;2023-05-10T03:20:08;100472.44;;;7.09
28803;BMP280;15949;55.656;37.422;2023-05-10T03:25:16;100484.84;;;7.30
28803;BMP280;15949;55.656;37.422;2023-05-10T03:30:22;100477.84;;;7.50
28803;BMP280;15949;55.656;37.422;2023-05-10T03:35:29;100484.06;;;7.67
28803;BMP280;15949;55.656;37.422;2023-05-10T03:40:35;100480.22;;;7.78
28803;BMP280;15949;55.656;37.422;2023-05-10T03:45:41;100479.81;;;7.90
28803;BMP280;15949;55.656;37.422;2023-05-10T03:50:46;100477.59;;;7.97
28803;BMP280;15949;55.656;37.422;2023-05-10T03:55:52;100479.00;;;8.08
28803;BMP280;15949;55.656;37.422;2023-05-10T04:00:57;100475.56;;;8.26
28803;BMP280;15949;55.656;37.422;2023-05-10T04:06:03;100476.34;;;8.40
28803;BMP280;15949;55.656;37.422;2023-05-10T04:11:10;100474.19;;;8.56
28803;BMP280;15949;55.656;37.422;2023-05-10T04:16:16;100467.88;;;8.76
28803;BMP280;15949;55.656;37.422;2023-05-10T04:21:22;100473.97;;;8.93
28803;BMP280;15949;55.656;37.422;2023-05-10T04:26:28;100472.16;;;9.08
28803;BMP280;15949;55.656;37.422;2023-05-10T04:31:33;100462.97;;;9.10
28803;BMP280;15949;55.656;37.422;2023-05-10T04:36:41;100463.56;;;9.29
28803;BMP280;15949;55.656;37.422;2023-05-10T04:41:47;100466.50;;;9.50
28803;BMP280;15949;55.656;37.422;2023-05-10T04:46:52;100463.56;;;9.74
28803;BMP280;15949;55.656;37.422;2023-05-10T04:51:58;100456.72;;;9.86
28803;BMP280;15949;55.656;37.422;2023-05-10T04:57:03;100451.88;;;9.93
28803;BMP280;15949;55.656;37.422;2023-05-10T05:02:09;100454.97;;;10.04
28803;BMP280;15949;55.656;37.422;2023-05-10T05:07:15;100452.75;;;10.19
28803;BMP280;15949;55.656;37.422;2023-05-10T05:12:20;100452.50;;;10.47
28803;BMP280;15949;55.656;37.422;2023-05-10T05:17:26;100446.88;;;10.70
28803;BMP280;15949;55.656;37.422;2023-05-10T05:22:32;100439.50;;;10.89
28803;BMP280;15949;55.656;37.422;2023-05-10T05:27:37;100428.78;;;11.00
28803;BMP280;15949;55.656;37.422;2023-05-10T05:32:44;100432.47;;;11.07
28803;BMP280;15949;55.656;37.422;2023-05-10T05:37:49;100425.25;;;11.13
28803;BMP280;15949;55.656;37.422;2023-05-10T05:42:55;100429.78;;;11.41
28803;BMP280;15949;55.656;37.422;2023-05-10T05:48:01;100420.44;;;11.78
28803;BMP280;15949;55.656;37.422;2023-05-10T05:53:06;100422.91;;;12.12
28803;BMP280;15949;55.656;37.422;2023-05-10T05:58:12;100418.00;;;12.32
28803;BMP280;15949;55.656;37.422;2023-05-10T06:03:18;100417.94;;;12.61
28803;BMP280;15949;55.656;37.422;2023-05-10T06:08:24;100414.09;;;12.79
28803;BMP280;15949;55.656;37.422;2023-05-10T06:13:30;100414.50;;;13.02
28803;BMP280;15949;55.656;37.422;2023-05-10T06:18:37;100413.34;;;13.11
28803;BMP280;15949;55.656;37.422;2023-05-10T06:23:43;100415.59;;;13.01
28803;BMP280;15949;55.656;37.422;2023-05-10T06:28:49;100417.63;;;12.95
28803;BMP280;15949;55.656;37.422;2023-05-10T06:33:54;100413.72;;;12.89
28803;BMP280;15949;55.656;37.422;2023-05-10T06:39:00;100401.53;;;13.05
28803;BMP280;15949;55.656;37.422;2023-05-10T06:44:06;100405.97;;;13.37
28803;BMP280;15949;55.656;37.422;2023-05-10T06:49:12;100403.16;;;13.67
28803;BMP280;15949;55.656;37.422;2023-05-10T06:54:18;100401.59;;;13.90
28803;BMP280;15949;55.656;37.422;2023-05-10T06:59:24;100393.72;;;14.02
28803;BMP280;15949;55.656;37.422;2023-05-10T07:04:30;100397.88;;;14.03
28803;BMP280;15949;55.656;37.422;2023-05-10T07:09:36;100395.06;;;13.84
28803;BMP280;15949;55.656;37.422;2023-05-10T07:14:42;100387.47;;;14.06
28803;BMP280;15949;55.656;37.422;2023-05-10T07:19:47;100383.53;;;14.40
28803;BMP280;15949;55.656;37.422;2023-05-10T07:24:53;100378.03;;;14.57
28803;BMP280;15949;55.656;37.422;2023-05-10T07:29:59;100373.75;;;14.96
28803;BMP280;15949;55.656;37.422;2023-05-10T07:35:06;100367.41;;;14.81
28803;BMP280;15949;55.656;37.422;2023-05-10T07:40:12;100364.81;;;15.13
28803;BMP280;15949;55.656;37.422;2023-05-10T07:45:17;100363.09;;;15.36
28803;BMP280;15949;55.656;37.422;2023-05-10T07:50:23;100363.84;;;15.71
28803;BMP280;15949;55.656;37.422;2023-05-10T07:55:29;100363.72;;;16.02
28803;BMP280;15949;55.656;37.422;2023-05-10T08:00:35;100361.66;;;16.11
28803;BMP280;15949;55.656;37.422;2023-05-10T08:05:40;100359.66;;;16.24
28803;BMP280;15949;55.656;37.422;2023-05-10T08:10:46;100344.06;;;16.35
28803;BMP280;15949;55.656;37.422;2023-05-10T08:15:52;100339.03;;;16.49
28803;BMP280;15949;55.656;37.422;2023-05-10T08:20:58;100328.84;;;16.70
28803;BMP280;15949;55.656;37.422;2023-05-10T08:26:04;100330.56;;;17.08
28803;BMP280;15949;55.656;37.422;2023-05-10T08:31:09;100324.41;;;17.26
28803;BMP280;15949;55.656;37.422;2023-05-10T08:36:15;100324.09;;;17.61
28803;BMP280;15949;55.656;37.422;2023-05-10T08:41:25;100315.28;;;17.46
28803;BMP280;15949;55.656;37.422;2023-05-10T08:46:34;100329.84;;;17.37
28803;BMP280;15949;55.656;37.422;2023-05-10T08:51:44;100317.03;;;17.39
28803;BMP280;15949;55.656;37.422;2023-05-10T08:56:52;100315.78;;;17.55
28803;BMP280;15949;55.656;37.422;2023-05-10T09:01:59;100301.72;;;17.18
28803;BMP280;15949;55.656;37.422;2023-05-10T09:07:06;100302.19;;;16.07
28803;BMP280;15949;55.656;37.422;2023-05-10T09:12:13;100302.41;;;15.98
28803;BMP280;15949;55.656;37.422;2023-05-10T09:17:23;100300.13;;;16.61
28803;BMP280;15949;55.656;37.422;2023-05-10T09:22:32;100289.22;;;16.85
28803;BMP280;15949;55.656;37.422;2023-05-10T09:27:40;100283.97;;;17.41
28803;BMP280;15949;55.656;37.422;2023-05-10T09:32:47;100276.19;;;17.89
28803;BMP280;15949;55.656;37.422;2023-05-10T09:37:55;100276.44;;;17.76
28803;BMP280;15949;55.656;37.422;2023-05-10T09:43:02;100268.78;;;17.64
28803;BMP280;15949;55.656;37.422;2023-05-10T09:48:08;100255.56;;;17.61
28803;BMP280;15949;55.656;37.422;2023-05-10T09:53:14;100262.00;;;18.44
28803;BMP280;15949;55.656;37.422;2023-05-10T09:58:21;100247.25;;;19.04
28803;BMP280;15949;55.656;37.422;2023-05-10T10:03:26;100251.81;;;19.14
28803;BMP280;15949;55.656;37.422;2023-05-10T10:08:32;100244.03;;;19.74
28803;BMP280;15949;55.656;37.422;2023-05-10T10:13:38;100235.16;;;19.07
28803;BMP280;15949;55.656;37.422;2023-05-10T10:18:43;100234.06;;;18.43
28803;BMP280;15949;55.656;37.422;2023-05-10T10:23:49;100224.50;;;17.84
28803;BMP280;15949;55.656;37.422;2023-05-10T10:34:29;100225.91;;;18.15
28803;BMP280;15949;55.656;37.422;2023-05-10T10:39:35;100208.13;;;18.59
28803;BMP280;15949;55.656;37.422;2023-05-10T10:44:41;100212.41;;;18.23
28803;BMP280;15949;55.656;37.422;2023-05-10T10:49:53;100219.81;;;18.04
28803;BMP280;15949;55.656;37.422;2023-05-10T10:55:11;100206.75;;;18.86
28803;BMP280;15949;55.656;37.422;2023-05-10T11:00:24;100209.09;;;18.98
28803;BMP280;15949;55.656;37.422;2023-05-10T11:10:39;100198.56;;;17.90
28803;BMP280;15949;55.656;37.422;2023-05-10T11:15:48;100177.50;;;17.97
28803;BMP280;15949;55.656;37.422;2023-05-10T11:21:00;100181.19;;;17.85
28803;BMP280;15949;55.656;37.422;2023-05-10T11:26:13;100184.88;;;17.73
28803;BMP280;15949;55.656;37.422;2023-05-10T11:31:19;100174.09;;;17.52
28803;BMP280;15949;55.656;37.422;2023-05-10T11:36:35;100177.16;;;17.54
28803;BMP280;15949;55.656;37.422;2023-05-10T11:41:41;100172.78;;;17.69
28803;BMP280;15949;55.656;37.422;2023-05-10T11:46:47;100174.59;;;17.65
28803;BMP280;15949;55.656;37.422;2023-05-10T11:52:06;100166.13;;;17.45
28803;BMP280;15949;55.656;37.422;2023-05-10T11:57:12;100166.25;;;17.23
28803;BMP280;15949;55.656;37.422;2023-05-10T12:02:18;100149.88;;;17.07
28803;BMP280;15949;55.656;37.422;2023-05-10T12:07:26;100153.19;;;17.00
28803;BMP280;15949;55.656;37.422;2023-05-10T12:12:42;100147.81;;;16.89
28803;BMP280;15949;55.656;37.422;2023-05-10T12:17:48;100144.00;;;16.87
28803;BMP280;15949;55.656;37.422;2023-05-10T12:22:56;100142.44;;;16.82
28803;BMP280;15949;55.656;37.422;2023-05-10T12:28:07;100145.88;;;16.86
28803;BMP280;15949;55.656;37.422;2023-05-10T12:33:13;100138.44;;;16.92
28803;BMP280;15949;55.656;37.422;2023-05-10T12:43:31;100134.75;;;17.00
28803;BMP280;15949;55.656;37.422;2023-05-10T12:48:38;100135.81;;;16.95
28803;BMP280;15949;55.656;37.422;2023-05-10T12:53:43;100139.38;;;16.77
28803;BMP280;15949;55.656;37.422;2023-05-10T12:58:51;100127.94;;;16.66
28803;BMP280;15949;55.656;37.422;2023-05-10T13:03:56;100131.38;;;16.70
28803;BMP280;15949;55.656;37.422;2023-05-10T13:09:02;100123.97;;;16.79
28803;BMP280;15949;55.656;37.422;2023-05-10T13:14:08;100116.28;;;16.67
28803;BMP280;15949;55.656;37.422;2023-05-10T13:19:14;100121.56;;;16.41
28803;BMP280;15949;55.656;37.422;2023-05-10T13:24:20;100120.78;;;16.10
28803;BMP280;15949;55.656;37.422;2023-05-10T13:29:25;100126.19;;;15.98
28803;BMP280;15949;55.656;37.422;2023-05-10T13:34:31;100118.47;;;15.86
28803;BMP280;15949;55.656;37.422;2023-05-10T13:39:37;100112.94;;;15.91
28803;BMP280;15949;55.656;37.422;2023-05-10T13:44:42;100113.69;;;15.92
28803;BMP280;15949;55.656;37.422;2023-05-10T13:49:48;100112.25;;;15.94
28803;BMP280;15949;55.656;37.422;2023-05-10T13:54:54;100105.72;;;16.11
28803;BMP280;15949;55.656;37.422;2023-05-10T14:00:02;100112.63;;;16.19
28803;BMP280;15949;55.656;37.422;2023-05-10T14:05:08;100102.03;;;16.15
28803;BMP280;15949;55.656;37.422;2023-05-10T14:10:14;100104.47;;;16.01
28803;BMP280;15949;55.656;37.422;2023-05-10T14:15:20;100105.03;;;15.91
28803;BMP280;15949;55.656;37.422;2023-05-10T14:20:25;100102.81;;;15.93
28803;BMP280;15949;55.656;37.422;2023-05-10T14:25:31;100103.31;;;15.76
28803;BMP280;15949;55.656;37.422;2023-05-10T14:30:38;100095.31;;;15.69
28803;BMP280;15949;55.656;37.422;2023-05-10T14:35:44;100098.16;;;15.83
28803;BMP280;15949;55.656;37.422;2023-05-10T14:40:50;100089.63;;;15.67
28803;BMP280;15949;55.656;37.422;2023-05-10T14:45:56;100085.00;;;15.61
28803;BMP280;15949;55.656;37.422;2023-05-10T14:51:01;100086.81;;;15.57
28803;BMP280;15949;55.656;37.422;2023-05-10T14:56:07;100081.38;;;15.46
28803;BMP280;15949;55.656;37.422;2023-05-10T15:01:13;100081.59;;;15.37
28803;BMP280;15949;55.656;37.422;2023-05-10T15:06:23;100074.59;;;15.22
28803;BMP280;15949;55.656;37.422;2023-05-10T15:11:30;100069.66;;;15.21
28803;BMP280;15949;55.656;37.422;2023-05-10T15:16:35;100073.38;;;15.01
28803;BMP280;15949;55.656;37.422;2023-05-10T15:21:41;100073.97;;;14.91
28803;BMP280;15949;55.656;37.422;2023-05-10T15:26:49;100072.44;;;14.90
28803;BMP280;15949;55.656;37.422;2023-05-10T15:31:55;100068.50;;;14.99
28803;BMP280;15949;55.656;37.422;2023-05-10T15:37:01;100068.00;;;14.94
28803;BMP280;15949;55.656;37.422;2023-05-10T15:42:06;100070.28;;;14.76
28803;BMP280;15949;55.656;37.422;2023-05-10T15:47:12;100065.06;;;14.60
28803;BMP280;15949;55.656;37.422;2023-05-10T15:52:18;100054.50;;;14.57
28803;BMP280;15949;55.656;37.422;2023-05-10T15:57:23;100060.22;;;14.43
28803;BMP280;15949;55.656;37.422;2023-05-10T16:02:29;100067.66;;;14.26
28803;BMP280;15949;55.656;37.422;2023-05-10T16:07:34;100066.34;;;14.16
28803;BMP280;15949;55.656;37.422;2023-05-10T16:12:40;100068.81;;;14.09
28803;BMP280;15949;55.656;37.422;2023-05-10T16:17:46;100063.66;;;13.97
28803;BMP280;15949;55.656;37.422;2023-05-10T16:22:52;100062.63;;;13.86
28803;BMP280;15949;55.656;37.422;2023-05-10T16:27:58;100065.94;;;13.83
28803;BMP280;15949;55.656;37.422;2023-05-10T16:33:04;100068.34;;;13.76
28803;BMP280;15949;55.656;37.422;2023-05-10T16:38:10;100059.47;;;13.65
28803;BMP280;15949;55.656;37.422;2023-05-10T16:43:15;100070.97;;;13.60
28803;BMP280;15949;55.656;37.422;2023-05-10T16:48:21;100070.69;;;13.50
28803;BMP280;15949;55.656;37.422;2023-05-10T16:53:28;100061.38;;;13.36
28803;BMP280;15949;55.656;37.422;2023-05-10T16:58:33;100066.75;;;13.28
28803;BMP280;15949;55.656;37.422;2023-05-10T17:03:39;100066.44;;;13.17
28803;BMP280;15949;55.656;37.422;2023-05-10T17:08:45;100066.81;;;13.04
28803;BMP280;15949;55.656;37.422;2023-05-10T17:13:51;100071.09;;;12.96
28803;BMP280;15949;55.656;37.422;2023-05-10T17:18:56;100070.91;;;12.89
28803;BMP280;15949;55.656;37.422;2023-05-10T17:24:03;100077.25;;;12.88
28803;BMP280;15949;55.656;37.422;2023-05-10T17:29:08;100082.47;;;12.88
28803;BMP280;15949;55.656;37.422;2023-05-10T17:34:15;100082.59;;;12.79
28803;BMP280;15949;55.656;37.422;2023-05-10T17:39:20;100086.41;;;12.70
28803;BMP280;15949;55.656;37.422;2023-05-10T17:44:26;100088.69;;;12.59
28803;BMP280;15949;55.656;37.422;2023-05-10T17:49:31;100097.31;;;12.48
28803;BMP280;15949;55.656;37.422;2023-05-10T17:54:37;100095.22;;;12.41
28803;BMP280;15949;55.656;37.422;2023-05-10T17:59:43;100104.28;;;12.32
28803;BMP280;15949;55.656;37.422;2023-05-10T18:04:48;100100.47;;;12.29
28803;BMP280;15949;55.656;37.422;2023-05-10T18:09:55;100105.69;;;12.29
28803;BMP280;15949;55.656;37.422;2023-05-10T18:15:01;100093.69;;;12.28
28803;BMP280;15949;55.656;37.422;2023-05-10T18:20:07;100109.28;;;12.12
28803;BMP280;15949;55.656;37.422;2023-05-10T18:25:13;100100.97;;;12.10
28803;BMP280;15949;55.656;37.422;2023-05-10T18:30:19;100099.03;;;12.07
28803;BMP280;15949;55.656;37.422;2023-05-10T18:35:25;100108.16;;;12.01
28803;BMP280;15949;55.656;37.422;2023-05-10T18:40:30;100106.09;;;12.07
28803;BMP280;15949;55.656;37.422;2023-05-10T18:45:36;100107.47;;;12.04
28803;BMP280;15949;55.656;37.422;2023-05-10T18:50:43;100111.22;;;11.83
28803;BMP280;15949;55.656;37.422;2023-05-10T18:55:56;100115.78;;;11.74
28803;BMP280;15949;55.656;37.422;2023-05-10T19:01:05;100115.59;;;11.79
28803;BMP280;15949;55.656;37.422;2023-05-10T19:06:10;100116.78;;;11.81
28803;BMP280;15949;55.656;37.422;2023-05-10T19:11:16;100109.97;;;11.89
28803;BMP280;15949;55.656;37.422;2023-05-10T19:16:22;100111.38;;;11.86
28803;BMP280;15949;55.656;37.422;2023-05-10T19:21:27;100105.50;;;11.89
28803;BMP280;15949;55.656;37.422;2023-05-10T19:26:33;100112.25;;;11.90
28803;BMP280;15949;55.656;37.422;2023-05-10T19:31:39;100109.75;;;11.94
28803;BMP280;15949;55.656;37.422;2023-05-10T19:36:44;100098.22;;;11.95
28803;BMP280;15949;55.656;37.422;2023-05-10T19:41:50;100104.09;;;11.92
28803;BMP280;15949;55.656;37.422;2023-05-10T19:46:56;100105.03;;;11.87
28803;BMP280;15949;55.656;37.422;2023-05-10T19:52:02;100099.28;;;11.82
28803;BMP280;15949;55.656;37.422;2023-05-10T19:57:08;100096.88;;;11.77
28803;BMP280;15949;55.656;37.422;2023-05-10T20:02:13;100092.03;;;11.67
28803;BMP280;15949;55.656;37.422;2023-05-10T20:07:19;100102.22;;;11.60
28803;BMP280;15949;55.656;37.422;2023-05-10T20:12:25;100108.34;;;11.43
28803;BMP280;15949;55.656;37.422;2023-05-10T20:17:30;100109.00;;;11.40
28803;BMP280;15949;55.656;37.422;2023-05-10T20:22:36;100111.09;;;11.46
28803;BMP280;15949;55.656;37.422;2023-05-10T20:27:42;100098.03;;;11.46
28803;BMP280;15949;55.656;37.422;2023-05-10T20:32:47;100100.97;;;11.45
28803;BMP280;15949;55.656;37.422;2023-05-10T20:37:53;100110.06;;;11.39
28803;BMP280;15949;55.656;37.422;2023-05-10T20:42:59;100105.13;;;11.25
28803;BMP280;15949;55.656;37.422;2023-05-10T20:48:06;100099.94;;;11.17
28803;BMP280;15949;55.656;37.422;2023-05-10T20:53:12;100102.56;;;11.17
28803;BMP280;15949;55.656;37.422;2023-05-10T20:58:19;100099.88;;;11.05
28803;BMP280;15949;55.656;37.422;2023-05-10T21:03:24;100105.28;;;11.00
28803;BMP280;15949;55.656;37.422;2023-05-10T21:08:30;100091.78;;;10.98
28803;BMP280;15949;55.656;37.422;2023-05-10T21:13:36;100091.31;;;10.96
28803;BMP280;15949;55.656;37.422;2023-05-10T21:18:41;100087.22;;;10.95
28803;BMP280;15949;55.656;37.422;2023-05-10T21:23:47;100094.59;;;10.84
28803;BMP280;15949;55.656;37.422;2023-05-10T21:28:53;100098.06;;;10.67
28803;BMP280;15949;55.656;37.422;2023-05-10T21:33:58;100093.22;;;10.57
28803;BMP280;15949;55.656;37.422;2023-05-10T21:39:04;100092.13;;;10.58
28803;BMP280;15949;55.656;37.422;2023-05-10T21:44:10;100098.44;;;10.57
28803;BMP280;15949;55.656;37.422;2023-05-10T21:49:15;100101.56;;;10.42
28803;BMP280;15949;55.656;37.422;2023-05-10T21:54:21;100102.00;;;10.44
28803;BMP280;15949;55.656;37.422;2023-05-10T21:59:27;100093.53;;;10.47
28803;BMP280;15949;55.656;37.422;2023-05-10T22:04:32;100098.47;;;10.40
28803;BMP280;15949;55.656;37.422;2023-05-10T22:09:39;100097.59;;;10.36
28803;BMP280;15949;55.656;37.422;2023-05-10T22:14:44;100104.47;;;10.32
28803;BMP280;15949;55.656;37.422;2023-05-10T22:19:50;100106.38;;;10.14
28803;BMP280;15949;55.656;37.422;2023-05-10T22:24:55;100106.06;;;10.16
28803;BMP280;15949;55.656;37.422;2023-05-10T22:30:02;100103.00;;;10.14
28803;BMP280;15949;55.656;37.422;2023-05-10T22:35:08;100098.72;;;10.09
28803;BMP280;15949;55.656;37.422;2023-05-10T22:40:14;100094.75;;;10.03
28803;BMP280;15949;55.656;37.422;2023-05-10T22:45:19;100097.34;;;9.95
28803;BMP280;15949;55.656;37.422;2023-05-10T22:50:25;100102.16;;;9.84
28803;BMP280;15949;55.656;37.422;2023-05-10T22:55:31;100102.31;;;9.71
28803;BMP280;15949;55.656;37.422;2023-05-10T23:00:37;100108.09;;;9.68
28803;BMP280;15949;55.656;37.422;2023-05-10T23:05:42;100109.00;;;9.72
28803;BMP280;15949;55.656;37.422;2023-05-10T23:10:48;100105.34;;;9.73
28803;BMP280;15949;55.656;37.422;2023-05-10T23:15:54;100105.50;;;9.76
28803;BMP280;15949;55.656;37.422;2023-05-10T23:21:00;100104.72;;;9.76
28803;BMP280;15949;55.656;37.422;2023-05-10T23:26:05;100114.69;;;9.82
28803;BMP280;15949;55.656;37.422;2023-05-10T23:31:11;100115.31;;;9.88
28803;BMP280;15949;55.656;37.422;2023-05-10T23:36:17;100106.88;;;9.91
28803;BMP280;15949;55.656;37.422;2023-05-10T23:41:23;100114.25;;;9.89
28803;BMP280;15949;55.656;37.422;2023-05-10T23:46:29;100113.00;;;9.78
28803;BMP280;15949;55.656;37.422;2023-05-10T23:51:34;100113.31;;;9.76
28803;BMP280;15949;55.656;37.422;2023-05-10T23:56:40;100116.97;;;9.49
